createdAt,value
2023-05-23T00:02:30.418Z,16.07
2023-05-23T00:05:15.208Z,16.03
2023-05-23T00:08:00.248Z,16.06
2023-05-23T00:10:45.335Z,15.97
2023-05-23T00:13:30.429Z,15.94
2023-05-23T00:16:15.292Z,15.96
2023-05-23T00:19:00.350Z,15.92
2023-05-23T00:21:45.223Z,15.88
2023-05-23T00:24:30.315Z,15.88
2023-05-23T00:27:15.349Z,15.87
2023-05-23T00:30:00.288Z,15.87
2023-05-23T00:32:45.407Z,15.86
2023-05-23T00:35:30.328Z,15.83
2023-05-23T00:38:15.432Z,15.83
2023-05-23T00:41:00.287Z,15.77
2023-05-23T00:43:45.450Z,15.75
2023-05-23T00:46:30.331Z,15.77
2023-05-23T00:49:15.317Z,15.75
2023-05-23T00:52:00.305Z,15.75
2023-05-23T00:54:45.231Z,15.70
2023-05-23T00:57:30.385Z,15.65
2023-05-23T01:00:15.369Z,15.63
2023-05-23T01:03:00.464Z,15.57
2023-05-23T01:05:45.291Z,15.57
2023-05-23T01:08:30.157Z,15.55
2023-05-23T01:11:15.035Z,15.54
2023-05-23T01:14:00.097Z,15.49
2023-05-23T01:16:45.063Z,15.46
2023-05-23T01:19:30.113Z,15.48
2023-05-23T01:22:14.998Z,15.37
2023-05-23T01:24:59.908Z,15.41
2023-05-23T01:27:45.027Z,15.33
2023-05-23T01:30:29.873Z,15.33
2023-05-23T01:33:14.893Z,15.33
2023-05-23T01:35:59.746Z,15.30
2023-05-23T01:38:44.865Z,15.23
2023-05-23T01:41:29.951Z,15.18
2023-05-23T01:44:14.934Z,15.17
2023-05-23T01:47:00.136Z,15.15
2023-05-23T01:49:45.080Z,15.16
2023-05-23T01:52:30.090Z,15.10
2023-05-23T01:55:14.946Z,15.09
2023-05-23T01:58:00.110Z,15.07
2023-05-23T02:00:44.902Z,15.06
2023-05-23T02:03:29.809Z,15.04
2023-05-23T02:06:14.743Z,15.01
2023-05-23T02:08:59.594Z,14.99
2023-05-23T02:11:44.833Z,15.00
2023-05-23T02:14:29.708Z,14.98
2023-05-23T02:17:14.681Z,14.92
2023-05-23T02:19:59.697Z,14.94
2023-05-23T02:22:44.848Z,14.92
2023-05-23T02:25:29.797Z,14.91
2023-05-23T02:28:14.771Z,14.90
2023-05-23T02:30:59.894Z,14.93
2023-05-23T02:33:44.843Z,14.89
2023-05-23T02:36:29.959Z,14.90
2023-05-23T02:39:14.906Z,14.87
2023-05-23T02:42:00.048Z,14.82
2023-05-23T02:44:45.019Z,14.86
2023-05-23T02:47:30.082Z,14.79
2023-05-23T02:50:15.120Z,14.80
2023-05-23T02:53:00.120Z,14.79
2023-05-23T02:55:45.186Z,14.78
2023-05-23T02:58:30.113Z,14.77
2023-05-23T03:01:15.141Z,14.77
2023-05-23T03:04:00.116Z,14.77
2023-05-23T03:06:45.144Z,14.68
2023-05-23T03:09:30.231Z,14.71
2023-05-23T03:12:15.147Z,14.71
2023-05-23T03:15:00.193Z,14.66
2023-05-23T03:17:45.162Z,14.66
2023-05-23T03:20:30.183Z,14.67
2023-05-23T03:23:15.073Z,14.62
2023-05-23T03:26:00.150Z,14.66
2023-05-23T03:28:44.988Z,14.63
2023-05-23T03:31:29.955Z,14.60
2023-05-23T03:34:14.867Z,14.57
2023-05-23T03:36:59.877Z,14.58
2023-05-23T03:39:44.922Z,14.60
2023-05-23T03:42:29.788Z,14.59
2023-05-23T03:45:14.908Z,14.61
2023-05-23T03:47:59.854Z,14.64
2023-05-23T03:50:44.866Z,14.62
2023-05-23T03:53:29.760Z,14.62
2023-05-23T03:56:14.723Z,14.60
2023-05-23T03:58:59.628Z,14.61
2023-05-23T04:01:44.609Z,14.62
2023-05-23T04:04:29.531Z,14.67
2023-05-23T04:07:14.416Z,14.65
2023-05-23T04:09:59.486Z,14.68
2023-05-23T04:12:44.364Z,14.69
2023-05-23T04:15:29.517Z,14.71
2023-05-23T04:18:14.447Z,14.73
2023-05-23T04:20:59.435Z,14.80
2023-05-23T04:23:44.678Z,14.84
2023-05-23T04:26:29.674Z,14.92
2023-05-23T04:29:14.781Z,15.00
2023-05-23T04:31:59.554Z,15.03
2023-05-23T04:34:44.564Z,15.09
2023-05-23T04:37:29.423Z,15.13
2023-05-23T04:40:14.533Z,15.21
2023-05-23T04:42:59.692Z,15.25
2023-05-23T04:45:44.640Z,15.31
2023-05-23T04:48:29.728Z,15.42
2023-05-23T04:51:14.844Z,15.54
2023-05-23T04:54:00.119Z,15.55
2023-05-23T04:56:45.010Z,15.58
2023-05-23T04:59:30.256Z,15.69
2023-05-23T05:02:15.328Z,15.79
2023-05-23T05:05:00.306Z,15.80
2023-05-23T05:07:45.296Z,15.95
2023-05-23T05:10:30.223Z,16.05
2023-05-23T05:13:15.302Z,16.68
2023-05-23T05:16:00.250Z,19.46
2023-05-23T05:18:45.266Z,21.11
2023-05-23T05:21:30.114Z,22.28
2023-05-23T05:24:15.112Z,22.98
2023-05-23T05:27:00.136Z,23.32
2023-05-23T05:29:44.891Z,21.04
2023-05-23T05:32:30.037Z,20.22
2023-05-23T05:35:14.966Z,19.59
2023-05-23T05:37:59.871Z,19.14
2023-05-23T05:40:44.817Z,19.35
2023-05-23T05:43:29.901Z,19.35
2023-05-23T05:46:14.812Z,22.62
2023-05-23T05:48:59.813Z,23.05
2023-05-23T05:51:44.805Z,23.08
2023-05-23T05:54:29.727Z,23.04
2023-05-23T05:57:14.635Z,25.39
2023-05-23T05:59:59.460Z,26.74
2023-05-23T06:02:44.575Z,27.00
2023-05-23T06:05:29.361Z,26.08
2023-05-23T06:08:14.319Z,26.83
2023-05-23T06:10:59.252Z,28.13
2023-05-23T06:13:44.238Z,29.25
2023-05-23T06:16:29.100Z,29.68
2023-05-23T06:19:14.016Z,30.21
2023-05-23T06:21:58.933Z,30.69
2023-05-23T06:24:43.887Z,31.64
2023-05-23T06:27:28.685Z,32.14
2023-05-23T06:30:13.521Z,32.27
2023-05-23T06:32:58.530Z,31.76
2023-05-23T06:35:43.458Z,30.89
2023-05-23T06:38:28.299Z,30.79
2023-05-23T06:41:13.220Z,30.81
2023-05-23T06:43:58.145Z,31.48
2023-05-23T06:46:42.999Z,32.20
2023-05-23T06:49:27.900Z,32.70
2023-05-23T06:52:12.763Z,33.19
2023-05-23T06:54:57.623Z,32.69
2023-05-23T06:57:42.719Z,32.80
2023-05-23T07:00:27.157Z,32.63
2023-05-23T07:03:12.199Z,33.17
2023-05-23T07:05:57.110Z,33.14
2023-05-23T07:08:41.803Z,32.27
2023-05-23T07:11:26.671Z,32.63
2023-05-23T07:14:11.616Z,33.23
2023-05-23T07:16:56.550Z,32.59
2023-05-23T07:19:41.293Z,32.68
2023-05-23T07:22:26.329Z,32.55
2023-05-23T07:25:11.205Z,32.51
2023-05-23T07:27:56.008Z,32.34
2023-05-23T07:30:41.269Z,31.93
2023-05-23T07:33:26.128Z,30.50
2023-05-23T07:36:11.166Z,27.84
2023-05-23T07:38:56.148Z,25.78
2023-05-23T07:41:41.243Z,24.58
2023-05-23T07:44:26.232Z,23.57
2023-05-23T07:47:11.445Z,23.23
2023-05-23T07:49:56.298Z,22.85
2023-05-23T07:52:41.236Z,22.00
2023-05-23T07:55:26.196Z,21.44
2023-05-23T07:58:11.244Z,21.07
2023-05-23T08:00:56.197Z,20.70
2023-05-23T08:03:41.214Z,20.82
2023-05-23T08:06:26.312Z,21.13
2023-05-23T08:09:11.202Z,21.26
2023-05-23T08:11:56.217Z,21.43
2023-05-23T08:14:50.702Z,21.51
2023-05-23T08:17:37.718Z,21.67
2023-05-23T08:20:22.972Z,21.95
2023-05-23T08:23:08.249Z,21.85
2023-05-23T08:25:53.059Z,21.54
2023-05-23T08:28:38.106Z,21.36
2023-05-23T08:31:23.146Z,21.35
2023-05-23T08:34:08.034Z,21.58
2023-05-23T08:36:52.960Z,21.60
2023-05-23T08:39:37.775Z,21.99
2023-05-23T08:42:22.930Z,21.97
2023-05-23T08:45:07.827Z,21.90
2023-05-23T08:47:53.023Z,21.74
2023-05-23T08:50:37.817Z,21.76
2023-05-23T08:53:22.828Z,21.76
2023-05-23T08:56:07.974Z,22.03
2023-05-23T08:58:52.849Z,22.05
2023-05-23T09:01:38.189Z,21.83
2023-05-23T09:04:22.935Z,21.44
2023-05-23T09:07:07.915Z,20.91
2023-05-23T09:09:52.966Z,20.72
2023-05-23T09:12:38.049Z,20.57
2023-05-23T09:15:22.815Z,20.45
2023-05-23T09:18:07.920Z,20.51
2023-05-23T09:20:52.860Z,20.51
2023-05-23T09:23:37.803Z,20.49
2023-05-23T09:26:22.909Z,20.36
2023-05-23T09:29:07.961Z,20.40
2023-05-23T09:31:53.157Z,20.43
2023-05-23T09:34:38.123Z,20.55
2023-05-23T09:37:23.073Z,20.81
2023-05-23T09:40:08.098Z,21.16
2023-05-23T09:42:52.896Z,21.51
2023-05-23T09:45:37.923Z,22.01
2023-05-23T09:48:22.888Z,22.31
2023-05-23T09:51:07.920Z,22.52
2023-05-23T09:53:52.860Z,22.74
2023-05-23T09:56:37.976Z,22.86
2023-05-23T09:59:22.939Z,22.89
2023-05-23T10:02:08.027Z,23.02
2023-05-23T10:04:53.070Z,22.76
2023-05-23T10:07:37.915Z,22.56
2023-05-23T10:10:22.984Z,22.72
2023-05-23T10:13:07.990Z,22.87
2023-05-23T10:15:53.097Z,22.77
2023-05-23T10:18:38.021Z,22.59
2023-05-23T10:21:22.971Z,22.77
2023-05-23T10:24:07.988Z,22.49
2023-05-23T10:26:52.936Z,22.42
2023-05-23T10:29:37.988Z,22.26
2023-05-23T10:32:23.024Z,22.30
2023-05-23T10:35:08.256Z,22.35
2023-05-23T10:37:53.114Z,22.85
2023-05-23T10:40:38.575Z,22.99
2023-05-23T10:43:23.388Z,22.92
2023-05-23T10:46:08.471Z,23.27
2023-05-23T10:48:53.288Z,23.56
2023-05-23T10:51:38.276Z,23.60
2023-05-23T10:54:23.483Z,24.09
2023-05-23T10:57:08.364Z,23.86
2023-05-23T10:59:53.449Z,24.03
2023-05-23T11:02:38.373Z,24.16
2023-05-23T11:05:23.500Z,24.24
2023-05-23T11:08:08.737Z,24.24
2023-05-23T11:10:53.744Z,24.34
2023-05-23T11:13:38.847Z,24.24
2023-05-23T11:16:23.846Z,23.85
2023-05-23T11:19:09.030Z,23.56
2023-05-23T11:21:53.857Z,23.40
2023-05-23T11:24:38.858Z,23.22
2023-05-23T11:27:23.775Z,23.54
2023-05-23T11:30:08.905Z,23.91
2023-05-23T11:32:54.003Z,24.18
2023-05-23T11:35:38.847Z,24.34
2023-05-23T11:38:23.912Z,24.35
2023-05-23T11:41:08.875Z,24.46
2023-05-23T11:43:53.742Z,24.40
2023-05-23T11:46:39.038Z,24.48
2023-05-23T11:49:24.046Z,24.68
2023-05-23T11:52:09.001Z,24.28
2023-05-23T11:54:56.183Z,24.12
2023-05-23T11:57:41.863Z,24.19
2023-05-23T12:00:26.764Z,24.30
2023-05-23T12:03:12.070Z,24.16
2023-05-23T12:05:56.861Z,24.08
2023-05-23T12:08:41.892Z,24.06
2023-05-23T12:11:26.839Z,24.32
2023-05-23T12:14:11.773Z,24.26
2023-05-23T12:16:56.737Z,23.83
2023-05-23T12:19:41.714Z,23.78
2023-05-23T12:22:26.754Z,24.04
2023-05-23T12:25:11.708Z,24.09
2023-05-23T12:27:56.655Z,24.00
2023-05-23T12:30:41.660Z,23.93
2023-05-23T12:33:26.557Z,24.08
2023-05-23T12:36:11.661Z,24.33
2023-05-23T12:38:56.604Z,24.21
2023-05-23T12:41:41.525Z,23.91
2023-05-23T12:44:26.589Z,23.78
2023-05-23T12:47:11.559Z,23.93
2023-05-23T12:49:56.381Z,24.08
2023-05-23T12:52:41.483Z,24.17
2023-05-23T12:55:26.484Z,24.36
2023-05-23T12:58:11.527Z,24.49
2023-05-23T13:00:56.630Z,24.83
2023-05-23T13:03:41.530Z,24.81
2023-05-23T13:06:26.511Z,25.36
2023-05-23T13:09:11.372Z,25.00
2023-05-23T13:11:56.435Z,24.92
2023-05-23T13:14:41.466Z,25.04
2023-05-23T13:17:26.579Z,24.71
2023-05-23T13:20:11.542Z,24.85
2023-05-23T13:22:56.469Z,24.86
2023-05-23T13:25:42.134Z,24.85
2023-05-23T13:28:27.197Z,24.76
2023-05-23T13:31:12.242Z,24.76
2023-05-23T13:33:57.136Z,24.84
2023-05-23T13:36:43.293Z,24.98
2023-05-23T13:39:28.458Z,25.01
2023-05-23T13:42:13.391Z,24.81
2023-05-23T13:44:58.440Z,24.61
2023-05-23T13:47:43.356Z,24.73
2023-05-23T13:50:28.346Z,24.73
2023-05-23T13:53:13.356Z,24.14
2023-05-23T13:55:58.209Z,24.39
2023-05-23T13:58:43.150Z,24.40
2023-05-23T14:01:28.201Z,24.64
2023-05-23T14:04:13.226Z,24.68
2023-05-23T14:06:58.237Z,24.82
2023-05-23T14:09:43.422Z,25.05
2023-05-23T14:12:28.190Z,25.06
2023-05-23T14:15:13.076Z,24.95
2023-05-23T14:17:58.098Z,25.26
2023-05-23T14:20:43.088Z,25.50
2023-05-23T14:23:28.100Z,25.23
2023-05-23T14:26:13.009Z,25.17
2023-05-23T14:28:58.161Z,25.36
2023-05-23T14:31:43.148Z,25.55
2023-05-23T14:34:28.071Z,25.63
2023-05-23T14:37:12.829Z,25.67
2023-05-23T14:39:57.923Z,25.29
2023-05-23T14:42:42.769Z,25.22
2023-05-23T14:45:27.957Z,25.39
2023-05-23T14:48:13.186Z,25.39
2023-05-23T14:50:57.909Z,25.46
2023-05-23T14:53:42.985Z,25.42
2023-05-23T14:56:27.817Z,24.47
2023-05-23T14:59:12.843Z,24.47
2023-05-23T15:01:57.764Z,24.48
2023-05-23T15:04:42.677Z,24.39
2023-05-23T15:07:27.531Z,24.02
2023-05-23T15:10:12.653Z,24.11
2023-05-23T15:12:57.724Z,24.03
2023-05-23T15:15:42.962Z,23.82
2023-05-23T15:18:39.581Z,23.54
2023-05-23T15:21:26.716Z,23.79
2023-05-23T15:24:11.759Z,23.79
2023-05-23T15:27:02.288Z,23.68
2023-05-23T15:29:53.217Z,23.75
2023-05-23T15:32:38.210Z,23.91
2023-05-23T15:35:23.283Z,23.41
2023-05-23T15:38:08.246Z,23.34
2023-05-23T15:40:53.413Z,23.40
2023-05-23T15:43:38.293Z,23.32
2023-05-23T15:46:23.357Z,23.17
2023-05-23T15:49:21.633Z,23.14
2023-05-23T15:52:09.736Z,23.07
2023-05-23T15:54:54.836Z,23.00
2023-05-23T15:57:39.729Z,22.91
2023-05-23T16:00:24.818Z,22.85
2023-05-23T16:03:09.907Z,22.82
2023-05-23T16:05:54.893Z,22.87
2023-05-23T16:08:39.892Z,22.85
2023-05-23T16:11:24.971Z,22.87
2023-05-23T16:14:10.002Z,22.78
2023-05-23T16:16:54.878Z,22.55
2023-05-23T16:19:40.160Z,22.31
2023-05-23T16:22:24.955Z,22.20
2023-05-23T16:25:10.036Z,22.00
2023-05-23T16:27:54.987Z,21.88
2023-05-23T16:30:40.128Z,21.79
2023-05-23T16:33:25.106Z,21.79
2023-05-23T16:36:10.098Z,21.80
2023-05-23T16:38:55.723Z,21.86
2023-05-23T16:41:40.730Z,21.85
2023-05-23T16:44:25.683Z,21.87
2023-05-23T16:47:10.599Z,21.65
2023-05-23T16:49:55.620Z,21.48
2023-05-23T16:52:40.648Z,21.04
2023-05-23T16:55:25.644Z,20.72
2023-05-23T16:58:10.734Z,20.49
2023-05-23T17:00:55.813Z,20.25
2023-05-23T17:03:41.062Z,20.01
2023-05-23T17:06:25.891Z,19.98
2023-05-23T17:09:10.879Z,19.87
2023-05-23T17:11:55.903Z,19.83
2023-05-23T17:14:41.033Z,19.83
2023-05-23T17:17:26.232Z,19.80
2023-05-23T17:20:11.122Z,19.81
2023-05-23T17:22:56.132Z,19.72
2023-05-23T17:25:41.328Z,19.56
2023-05-23T17:28:26.497Z,19.50
2023-05-23T17:31:11.419Z,19.52
2023-05-23T17:33:56.514Z,19.51
2023-05-23T17:36:41.564Z,19.54
2023-05-23T17:39:26.411Z,19.49
2023-05-23T17:42:11.553Z,19.54
2023-05-23T17:44:56.448Z,19.65
2023-05-23T17:47:41.532Z,19.65
2023-05-23T17:50:26.504Z,19.74
2023-05-23T17:53:11.664Z,19.48
2023-05-23T17:55:56.486Z,19.30
2023-05-23T17:58:43.907Z,19.39
2023-05-23T18:01:29.101Z,19.36
2023-05-23T18:04:13.978Z,19.31
2023-05-23T18:06:58.991Z,19.40
2023-05-23T18:09:43.929Z,19.52
2023-05-23T18:12:29.127Z,19.59
2023-05-23T18:15:14.107Z,19.46
2023-05-23T18:17:59.219Z,19.18
2023-05-23T18:20:44.645Z,19.14
2023-05-23T18:23:29.672Z,19.16
2023-05-23T18:26:14.814Z,19.25
2023-05-23T18:28:59.761Z,19.13
2023-05-23T18:31:44.775Z,18.90
2023-05-23T18:34:29.866Z,18.80
2023-05-23T18:37:14.731Z,18.85
2023-05-23T18:39:59.791Z,18.85
2023-05-23T18:42:44.759Z,18.77
2023-05-23T18:45:29.797Z,18.79
2023-05-23T18:48:14.734Z,18.71
2023-05-23T18:50:59.891Z,18.50
2023-05-23T18:53:44.844Z,18.37
2023-05-23T18:56:29.790Z,18.32
2023-05-23T18:59:14.656Z,18.24
2023-05-23T19:01:59.678Z,18.21
2023-05-23T19:04:44.794Z,18.21
2023-05-23T19:07:29.654Z,18.20
2023-05-23T19:10:14.559Z,18.17
2023-05-23T19:12:59.411Z,18.10
2023-05-23T19:15:44.472Z,17.98
2023-05-23T19:18:29.412Z,17.77
2023-05-23T19:21:14.407Z,17.73
2023-05-23T19:23:59.450Z,17.75
2023-05-23T19:26:44.435Z,17.73
2023-05-23T19:29:29.627Z,17.78
2023-05-23T19:32:14.586Z,17.70
2023-05-23T19:34:59.657Z,17.50
2023-05-23T19:37:44.473Z,17.47
2023-05-23T19:40:29.555Z,17.45
2023-05-23T19:43:14.452Z,17.45
2023-05-23T19:45:59.547Z,17.47
2023-05-23T19:48:44.484Z,17.43
2023-05-23T19:51:29.406Z,17.39
2023-05-23T19:54:14.502Z,17.36
2023-05-23T19:56:59.323Z,17.30
2023-05-23T19:59:44.278Z,17.27
2023-05-23T20:02:29.334Z,17.27
2023-05-23T20:05:14.401Z,17.24
2023-05-23T20:07:59.359Z,17.22
2023-05-23T20:10:44.456Z,17.20
2023-05-23T20:13:29.512Z,17.29
2023-05-23T20:16:14.559Z,17.37
2023-05-23T20:18:59.813Z,17.42
2023-05-23T20:21:44.625Z,17.42
2023-05-23T20:24:29.639Z,17.43
2023-05-23T20:27:14.537Z,17.44
2023-05-23T20:29:59.699Z,17.45
2023-05-23T20:32:44.944Z,17.37
2023-05-23T20:35:29.888Z,17.35
2023-05-23T20:38:15.036Z,17.37
2023-05-23T20:41:00.195Z,17.37
2023-05-23T20:43:45.222Z,17.37
2023-05-23T20:46:32.785Z,17.35
2023-05-23T20:49:17.753Z,17.28
2023-05-23T20:52:02.839Z,17.15
2023-05-23T20:54:47.681Z,17.09
2023-05-23T20:57:32.881Z,17.00
2023-05-23T21:00:17.920Z,16.93
2023-05-23T21:03:03.055Z,16.89
2023-05-23T21:05:47.931Z,16.82
2023-05-23T21:08:34.701Z,16.75
2023-05-23T21:11:20.079Z,16.74
2023-05-23T21:14:05.032Z,16.70
2023-05-23T21:16:50.273Z,16.67
2023-05-23T21:19:35.075Z,16.64
2023-05-23T21:22:20.111Z,16.58
2023-05-23T21:25:05.128Z,16.57
2023-05-23T21:27:50.163Z,16.60
2023-05-23T21:30:35.161Z,16.62
2023-05-23T21:33:20.136Z,16.66
2023-05-23T21:36:05.132Z,16.65
2023-05-23T21:38:50.071Z,16.59
2023-05-23T21:41:35.113Z,16.58
2023-05-23T21:44:20.189Z,16.59
2023-05-23T21:47:05.254Z,16.63
2023-05-23T21:49:50.335Z,16.69
2023-05-23T21:52:35.183Z,16.71
2023-05-23T21:55:20.355Z,16.75
2023-05-23T21:58:05.317Z,16.78
2023-05-23T22:00:50.541Z,16.71
2023-05-23T22:03:35.610Z,16.67
2023-05-23T22:06:20.651Z,16.71
2023-05-23T22:09:05.672Z,16.66
2023-05-23T22:11:50.737Z,16.66
2023-05-23T22:14:35.770Z,16.65
2023-05-23T22:17:20.755Z,16.66
2023-05-23T22:20:05.754Z,16.62
2023-05-23T22:22:50.616Z,16.60
2023-05-23T22:25:35.799Z,16.61
2023-05-23T22:28:20.706Z,16.59
2023-05-23T22:31:05.886Z,16.58
2023-05-23T22:33:50.817Z,16.52
2023-05-23T22:36:35.751Z,16.48
2023-05-23T22:39:20.937Z,16.44
2023-05-23T22:42:05.924Z,16.43
2023-05-23T22:44:51.072Z,16.39
2023-05-23T22:47:35.995Z,16.34
2023-05-23T22:50:20.955Z,16.40
2023-05-23T22:53:05.798Z,16.35
2023-05-23T22:55:50.999Z,16.30
2023-05-23T22:58:35.918Z,16.21
2023-05-23T23:01:21.088Z,16.25
2023-05-23T23:04:05.982Z,16.21
2023-05-23T23:06:50.975Z,16.16
2023-05-23T23:09:36.140Z,16.10
2023-05-23T23:12:21.082Z,16.09
2023-05-23T23:15:06.099Z,16.11
2023-05-23T23:17:51.106Z,16.08
2023-05-23T23:20:35.942Z,16.06
2023-05-23T23:23:21.036Z,16.04
2023-05-23T23:26:05.907Z,16.01
2023-05-23T23:28:51.039Z,16.02
2023-05-23T23:31:35.997Z,15.97
2023-05-23T23:34:21.224Z,15.99
2023-05-23T23:37:06.130Z,15.96
2023-05-23T23:39:51.377Z,15.90
2023-05-23T23:42:36.427Z,15.88
2023-05-23T23:45:21.432Z,15.88
2023-05-23T23:48:06.580Z,15.91
2023-05-23T23:50:51.463Z,15.93
2023-05-23T23:53:36.661Z,15.93
2023-05-23T23:56:21.578Z,15.97
2023-05-23T23:59:06.589Z,15.95
